createdAt,value
2023-02-04T00:00:30.762Z,92.00
2023-02-04T00:03:03.681Z,92.07
2023-02-04T00:05:37.472Z,92.27
2023-02-04T00:08:10.288Z,92.59
2023-02-04T00:10:43.506Z,92.40
2023-02-04T00:13:16.770Z,92.29
2023-02-04T00:15:50.986Z,92.50
2023-02-04T00:18:23.780Z,92.80
2023-02-04T00:21:09.309Z,93.31
2023-02-04T00:23:42.089Z,93.56
2023-02-04T00:26:14.371Z,93.95
2023-02-04T00:28:47.140Z,93.50
2023-02-04T00:31:19.647Z,92.73
2023-02-04T00:33:52.234Z,92.31
2023-02-04T00:36:24.887Z,91.97
2023-02-04T00:38:57.556Z,91.83
2023-02-04T00:41:30.046Z,91.87
2023-02-04T00:44:02.464Z,91.61
2023-02-04T00:46:37.095Z,91.35
2023-02-04T00:49:10.953Z,91.37
2023-02-04T00:51:46.024Z,91.37
2023-02-04T00:54:18.370Z,91.39
2023-02-04T00:56:51.392Z,91.16
2023-02-04T00:59:23.790Z,91.06
2023-02-04T01:01:56.229Z,91.15
2023-02-04T01:04:29.727Z,91.14
2023-02-04T01:07:02.545Z,91.15
2023-02-04T01:09:35.108Z,91.92
2023-02-04T01:12:08.155Z,92.52
2023-02-04T01:14:40.709Z,92.96
2023-02-04T01:17:13.206Z,93.05
2023-02-04T01:19:45.916Z,92.84
2023-02-04T01:22:18.855Z,92.73
2023-02-04T01:24:52.089Z,92.03
2023-02-04T01:27:43.547Z,92.00
2023-02-04T01:30:16.818Z,91.30
2023-02-04T01:32:50.362Z,90.80
2023-02-04T01:35:23.058Z,91.10
2023-02-04T01:37:57.586Z,91.80
2023-02-04T01:40:30.331Z,91.71
2023-02-04T01:43:03.533Z,91.28
2023-02-04T01:48:23.475Z,91.23
2023-02-04T01:51:02.095Z,91.32
2023-02-04T01:53:34.505Z,91.50
2023-02-04T01:56:20.460Z,91.97
2023-02-04T01:58:53.597Z,92.45
2023-02-04T02:01:46.920Z,92.07
2023-02-04T02:04:33.456Z,91.71
2023-02-04T02:07:11.779Z,91.49
2023-02-04T02:09:44.631Z,92.43
2023-02-04T02:12:17.567Z,92.97
2023-02-04T02:14:50.606Z,93.43
2023-02-04T02:17:23.594Z,92.94
2023-02-04T02:20:13.245Z,92.98
2023-02-04T02:23:26.444Z,92.83
2023-02-04T02:25:59.329Z,92.66
2023-02-04T02:28:32.084Z,93.22
2023-02-04T02:31:04.535Z,93.48
2023-02-04T02:33:37.257Z,93.25
2023-02-04T02:36:10.123Z,93.26
2023-02-04T02:38:42.984Z,93.02
2023-02-04T02:41:15.580Z,93.93
2023-02-04T02:43:48.384Z,94.08
2023-02-04T02:46:21.046Z,94.00
2023-02-04T02:48:53.725Z,93.80
2023-02-04T02:51:26.649Z,93.95
2023-02-04T02:53:59.912Z,93.71
2023-02-04T02:56:33.418Z,93.90
2023-02-04T02:59:16.552Z,94.21
2023-02-04T03:01:50.361Z,94.11
2023-02-04T03:04:23.491Z,94.11
2023-02-04T03:06:56.823Z,94.60
2023-02-04T03:09:29.694Z,94.50
2023-02-04T03:12:15.339Z,94.30
2023-02-04T03:14:48.661Z,94.15
2023-02-04T03:17:22.932Z,94.47
2023-02-04T03:19:55.724Z,94.79
2023-02-04T03:22:28.800Z,95.08
2023-02-04T03:25:01.843Z,95.45
2023-02-04T03:27:35.360Z,95.99
2023-02-04T03:30:09.141Z,95.25
2023-02-04T03:32:42.722Z,95.25
2023-02-04T03:35:15.408Z,95.25
2023-02-04T03:37:48.236Z,95.15
2023-02-04T03:40:21.421Z,94.98
2023-02-04T03:42:54.780Z,95.38
2023-02-04T03:45:32.371Z,95.52
2023-02-04T03:48:02.372Z,95.36
2023-02-04T03:50:35.162Z,95.12
2023-02-04T03:53:07.497Z,95.13
2023-02-04T03:55:40.063Z,95.09
2023-02-04T03:58:12.735Z,95.00
2023-02-04T04:00:45.222Z,94.89
2023-02-04T04:03:17.733Z,94.84
2023-02-04T04:05:50.405Z,94.71
2023-02-04T04:08:23.243Z,94.55
2023-02-04T04:10:56.233Z,94.52
2023-02-04T04:13:29.321Z,94.36
2023-02-04T04:16:03.351Z,94.56
2023-02-04T04:18:46.993Z,94.65
2023-02-04T04:21:19.926Z,95.16
2023-02-04T04:23:52.329Z,95.33
2023-02-04T04:26:24.957Z,95.03
2023-02-04T04:28:57.277Z,94.33
2023-02-04T04:31:30.046Z,93.81
2023-02-04T04:34:02.639Z,93.85
2023-02-04T04:36:36.393Z,93.95
2023-02-04T04:39:08.816Z,94.23
2023-02-04T04:41:42.319Z,94.52
2023-02-04T04:44:14.895Z,94.76
2023-02-04T04:46:47.436Z,94.75
2023-02-04T04:49:19.995Z,95.08
2023-02-04T04:51:52.621Z,94.97
2023-02-04T04:54:24.992Z,95.03
2023-02-04T04:56:57.504Z,95.37
2023-02-04T04:59:30.154Z,95.46
2023-02-04T05:02:02.875Z,95.53
2023-02-04T05:04:35.471Z,95.45
2023-02-04T05:07:08.235Z,95.07
2023-02-04T05:09:41.463Z,95.06
2023-02-04T05:12:14.066Z,94.90
2023-02-04T05:14:46.438Z,95.41
2023-02-04T05:17:18.787Z,96.04
2023-02-04T05:19:51.133Z,96.09
2023-02-04T05:22:24.120Z,95.87
2023-02-04T05:24:57.319Z,96.18
2023-02-04T05:27:30.202Z,96.12
2023-02-04T05:30:02.799Z,96.79
2023-02-04T05:32:35.454Z,96.55
2023-02-04T05:35:29.382Z,96.73
2023-02-04T05:38:03.017Z,97.14
2023-02-04T05:40:35.497Z,96.99
2023-02-04T05:43:08.344Z,96.46
2023-02-04T05:45:41.192Z,96.17
2023-02-04T05:48:13.558Z,96.88
2023-02-04T05:50:47.515Z,96.71
2023-02-04T05:53:20.445Z,97.38
2023-02-04T05:55:52.844Z,97.34
2023-02-04T05:58:25.510Z,97.27
2023-02-04T06:00:58.484Z,97.09
2023-02-04T06:03:31.631Z,97.46
2023-02-04T06:06:04.468Z,97.35
2023-02-04T06:08:37.365Z,97.40
2023-02-04T06:11:10.847Z,97.67
2023-02-04T06:13:43.369Z,98.03
2023-02-04T06:16:16.130Z,98.44
2023-02-04T06:18:48.577Z,98.88
2023-02-04T06:21:21.246Z,98.98
2023-02-04T06:23:54.015Z,98.85
2023-02-04T06:26:27.263Z,98.20
2023-02-04T06:28:59.537Z,97.51
2023-02-04T06:31:32.509Z,97.87
2023-02-04T06:34:08.253Z,97.96
2023-02-04T06:36:41.234Z,97.90
2023-02-04T06:39:13.924Z,98.14
2023-02-04T06:41:46.313Z,98.43
2023-02-04T06:44:18.786Z,98.48
2023-02-04T06:46:51.412Z,98.63
2023-02-04T06:49:25.383Z,98.66
2023-02-04T06:51:57.866Z,98.83
2023-02-04T06:54:30.537Z,98.56
2023-02-04T06:57:10.079Z,98.27
2023-02-04T06:59:43.786Z,98.22
2023-02-04T07:02:18.259Z,98.28
2023-02-04T07:04:50.869Z,98.33
2023-02-04T07:07:23.791Z,98.08
2023-02-04T07:09:56.250Z,97.83
2023-02-04T07:12:28.866Z,97.20
2023-02-04T07:15:01.695Z,96.74
2023-02-04T07:17:34.498Z,96.36
2023-02-04T07:20:08.403Z,96.18
2023-02-04T07:22:42.453Z,96.38
2023-02-04T07:25:16.171Z,96.48
2023-02-04T07:27:48.757Z,96.48
2023-02-04T07:30:21.528Z,96.53
2023-02-04T07:32:54.388Z,96.65
2023-02-04T07:35:26.800Z,96.83
2023-02-04T07:37:59.876Z,97.34
2023-02-04T07:40:33.438Z,97.27
2023-02-04T07:43:06.537Z,96.76
2023-02-04T07:45:39.516Z,95.89
2023-02-04T07:48:12.819Z,95.55
2023-02-04T07:50:45.693Z,94.94
2023-02-04T07:53:41.460Z,94.48
2023-02-04T07:56:13.915Z,94.09
2023-02-04T07:58:46.824Z,93.57
2023-02-04T08:01:19.208Z,93.18
2023-02-04T08:03:58.249Z,92.83
2023-02-04T08:06:30.650Z,92.83
2023-02-04T08:09:04.266Z,93.02
2023-02-04T08:11:38.675Z,93.35
2023-02-04T08:14:11.812Z,92.60
2023-02-04T08:16:44.809Z,92.60
2023-02-04T08:19:19.256Z,92.73
2023-02-04T08:21:51.607Z,92.87
2023-02-04T08:24:24.032Z,93.42
2023-02-04T08:26:56.394Z,93.28
2023-02-04T08:29:29.022Z,92.81
2023-02-04T08:32:02.957Z,92.40
2023-02-04T08:34:35.766Z,92.65
2023-02-04T08:37:08.077Z,92.41
2023-02-04T08:39:43.185Z,92.27
2023-02-04T08:42:17.382Z,92.35
2023-02-04T08:44:49.930Z,92.33
2023-02-04T08:47:22.244Z,93.13
2023-02-04T08:49:54.711Z,92.91
2023-02-04T08:52:27.010Z,92.91
2023-02-04T08:54:59.590Z,93.38
2023-02-04T08:57:31.938Z,93.58
2023-02-04T09:00:05.007Z,93.56
2023-02-04T09:02:37.330Z,93.18
2023-02-04T09:05:10.065Z,93.29
2023-02-04T09:07:43.454Z,93.25
2023-02-04T09:10:16.359Z,93.60
2023-02-04T09:12:50.120Z,93.40
2023-02-04T09:15:25.488Z,93.55
2023-02-04T09:18:01.161Z,93.21
2023-02-04T09:20:35.413Z,93.00
2023-02-04T09:23:10.725Z,93.31
2023-02-04T09:25:44.845Z,93.47
2023-02-04T09:28:35.768Z,93.57
2023-02-04T09:31:08.538Z,94.38
2023-02-04T09:33:40.846Z,94.26
2023-02-04T09:36:13.936Z,94.22
2023-02-04T09:38:46.394Z,93.97
2023-02-04T09:41:19.206Z,94.04
2023-02-04T09:43:51.614Z,94.20
2023-02-04T09:46:27.740Z,94.22
2023-02-04T09:49:03.890Z,94.60
2023-02-04T09:51:36.563Z,94.16
2023-02-04T09:54:23.555Z,94.14
2023-02-04T09:56:57.117Z,94.57
2023-02-04T09:59:29.688Z,94.39
2023-02-04T10:02:03.119Z,94.59
2023-02-04T10:04:35.819Z,95.04
2023-02-04T10:07:11.480Z,95.32
2023-02-04T10:09:44.617Z,95.69
2023-02-04T10:12:16.998Z,95.90
2023-02-04T10:14:50.034Z,96.04
2023-02-04T10:17:24.169Z,96.42
2023-02-04T10:19:56.745Z,97.17
2023-02-04T10:22:29.579Z,96.92
2023-02-04T10:25:02.077Z,96.55
2023-02-04T10:27:34.912Z,96.64
2023-02-04T10:30:08.708Z,96.56
2023-02-04T10:32:41.484Z,96.81
2023-02-04T10:35:17.096Z,96.47
2023-02-04T10:37:49.978Z,96.54
2023-02-04T10:40:32.379Z,96.15
2023-02-04T10:43:18.237Z,95.98
2023-02-04T10:46:04.489Z,96.07
2023-02-04T10:48:43.866Z,96.26
2023-02-04T10:51:16.375Z,95.99
2023-02-04T10:54:07.508Z,96.23
2023-02-04T10:56:40.149Z,96.13
2023-02-04T10:59:17.563Z,96.14
2023-02-04T11:01:49.991Z,96.10
2023-02-04T11:04:22.413Z,96.23
2023-02-04T11:06:55.608Z,95.90
2023-02-04T11:09:28.615Z,95.65
2023-02-04T11:12:01.053Z,95.50
2023-02-04T11:14:34.856Z,94.98
2023-02-04T11:17:07.188Z,94.09
2023-02-04T11:19:40.274Z,93.06
2023-02-04T11:22:38.175Z,91.44
2023-02-04T11:25:38.270Z,89.42
2023-02-04T11:28:25.640Z,88.27
2023-02-04T11:31:04.053Z,87.46
2023-02-04T11:33:42.384Z,86.16
2023-02-04T11:36:16.109Z,84.76
2023-02-04T11:38:50.168Z,83.54
2023-02-04T11:41:51.331Z,82.64
2023-02-04T11:44:25.372Z,82.60
2023-02-04T11:46:58.622Z,82.74
2023-02-04T11:49:31.983Z,82.72
2023-02-04T11:52:13.868Z,83.47
2023-02-04T11:54:56.944Z,83.76
2023-02-04T11:57:29.367Z,83.76
2023-02-04T12:00:01.951Z,83.48
2023-02-04T12:02:47.068Z,83.52
2023-02-04T12:05:20.891Z,83.79
2023-02-04T12:07:53.251Z,83.38
2023-02-04T12:10:27.197Z,83.79
2023-02-04T12:13:00.363Z,84.20
2023-02-04T12:15:37.540Z,84.64
2023-02-04T12:18:15.073Z,84.60
2023-02-04T12:20:47.439Z,84.97
2023-02-04T12:23:20.926Z,84.91
2023-02-04T12:25:53.503Z,84.98
2023-02-04T12:28:28.085Z,85.37
2023-02-04T12:31:00.439Z,85.06
2023-02-04T12:33:33.195Z,85.08
2023-02-04T12:36:06.213Z,84.53
2023-02-04T12:38:38.823Z,84.48
2023-02-04T12:41:11.734Z,84.54
2023-02-04T12:43:44.113Z,84.06
2023-02-04T12:46:16.537Z,84.09
2023-02-04T12:48:49.146Z,83.73
2023-02-04T12:51:22.535Z,83.27
2023-02-04T12:53:55.121Z,82.90
2023-02-04T12:56:32.152Z,82.58
2023-02-04T12:59:05.821Z,82.47
2023-02-04T13:01:38.852Z,82.25
2023-02-04T13:04:11.512Z,81.71
2023-02-04T13:06:44.663Z,81.38
2023-02-04T13:09:16.982Z,81.35
2023-02-04T13:11:49.347Z,81.31
2023-02-04T13:14:22.450Z,81.17
2023-02-04T13:16:54.982Z,81.06
2023-02-04T13:19:27.689Z,80.97
2023-02-04T13:22:00.892Z,80.78
2023-02-04T13:24:33.818Z,80.48
2023-02-04T13:27:06.344Z,80.44
2023-02-04T13:29:38.694Z,80.25
2023-02-04T13:32:11.615Z,79.71
2023-02-04T13:34:44.141Z,79.75
2023-02-04T13:37:17.014Z,79.53
2023-02-04T13:39:49.434Z,79.42
2023-02-04T13:42:21.860Z,79.03
2023-02-04T13:44:55.376Z,78.80
2023-02-04T13:47:27.811Z,77.95
2023-02-04T13:50:00.637Z,77.68
2023-02-04T13:52:34.620Z,77.30
2023-02-04T13:55:07.850Z,77.29
2023-02-04T13:57:41.201Z,76.94
2023-02-04T14:00:15.242Z,76.67
2023-02-04T14:02:50.990Z,75.95
2023-02-04T14:05:23.394Z,75.64
2023-02-04T14:07:55.935Z,74.29
2023-02-04T14:10:29.305Z,73.76
2023-02-04T14:13:02.405Z,74.16
2023-02-04T14:15:44.021Z,78.55
2023-02-04T14:18:19.598Z,84.58
2023-02-04T14:20:53.288Z,85.29
2023-02-04T14:23:26.060Z,84.92
2023-02-04T14:25:58.838Z,84.48
2023-02-04T14:28:31.406Z,85.06
2023-02-04T14:31:04.356Z,83.97
2023-02-04T14:33:37.050Z,84.03
2023-02-04T14:36:09.812Z,84.84
2023-02-04T14:38:43.306Z,82.55
2023-02-04T14:41:17.458Z,82.88
2023-02-04T14:43:49.515Z,82.11
2023-02-04T14:46:22.957Z,81.55
2023-02-04T14:48:55.581Z,81.45
2023-02-04T14:51:28.024Z,81.36
2023-02-04T14:54:00.377Z,82.03
2023-02-04T14:56:33.048Z,82.17
2023-02-04T14:59:05.460Z,81.47
2023-02-04T15:01:39.220Z,81.05
2023-02-04T15:04:12.157Z,79.92
2023-02-04T15:06:46.233Z,79.46
2023-02-04T15:09:18.643Z,79.82
2023-02-04T15:11:51.517Z,80.56
2023-02-04T15:14:24.114Z,80.89
2023-02-04T15:16:56.787Z,80.17
2023-02-04T15:19:29.114Z,80.00
2023-02-04T15:22:01.574Z,80.02
2023-02-04T15:24:34.195Z,79.29
2023-02-04T15:27:07.144Z,79.34
2023-02-04T15:29:39.968Z,79.46
2023-02-04T15:35:03.101Z,78.98
2023-02-04T15:37:36.401Z,78.39
2023-02-04T15:40:31.949Z,78.03
2023-02-04T15:43:05.206Z,78.55
2023-02-04T15:45:39.803Z,79.08
2023-02-04T15:48:12.659Z,79.17
2023-02-04T15:50:45.620Z,80.16
2023-02-04T15:53:19.238Z,79.90
2023-02-04T15:55:52.099Z,79.24
2023-02-04T15:58:24.818Z,78.82
2023-02-04T16:00:57.639Z,80.01
2023-02-04T16:03:30.228Z,79.59
2023-02-04T16:06:03.810Z,80.38
2023-02-04T16:08:36.130Z,81.28
2023-02-04T16:11:08.813Z,80.47
2023-02-04T16:13:41.612Z,81.14
2023-02-04T16:16:14.175Z,80.79
2023-02-04T16:18:46.756Z,79.69
2023-02-04T16:21:19.252Z,79.54
2023-02-04T16:23:51.748Z,80.48
2023-02-04T16:26:29.123Z,80.22
2023-02-04T16:29:03.110Z,79.57
2023-02-04T16:31:36.244Z,79.02
2023-02-04T16:34:08.690Z,79.67
2023-02-04T16:36:41.293Z,79.73
2023-02-04T16:39:13.777Z,80.85
2023-02-04T16:41:46.571Z,80.00
2023-02-04T16:44:19.134Z,79.79
2023-02-04T16:46:51.704Z,80.07
2023-02-04T16:49:25.654Z,80.40
2023-02-04T16:51:58.106Z,79.93
2023-02-04T16:54:30.789Z,79.36
2023-02-04T16:57:03.953Z,79.32
2023-02-04T16:59:38.354Z,78.95
2023-02-04T17:02:10.902Z,78.54
2023-02-04T17:04:43.423Z,79.18
2023-02-04T17:07:15.989Z,79.54
2023-02-04T17:09:48.447Z,78.83
2023-02-04T17:12:21.728Z,78.88
2023-02-04T17:14:55.366Z,78.41
2023-02-04T17:17:29.020Z,79.39
2023-02-04T17:20:01.955Z,78.50
2023-02-04T17:22:35.405Z,78.15
2023-02-04T17:25:08.840Z,78.37
2023-02-04T17:27:41.572Z,77.99
2023-02-04T17:30:35.783Z,78.14
2023-02-04T17:33:08.706Z,78.12
2023-02-04T17:35:41.277Z,77.91
2023-02-04T17:38:14.165Z,78.52
2023-02-04T17:40:46.751Z,78.45
2023-02-04T17:43:19.423Z,78.16
2023-02-04T17:45:52.201Z,78.22
2023-02-04T17:48:24.611Z,78.08
2023-02-04T17:50:57.112Z,78.24
2023-02-04T17:53:30.849Z,78.96
2023-02-04T17:56:05.754Z,79.17
2023-02-04T17:58:38.219Z,78.70
2023-02-04T18:01:14.829Z,79.12
2023-02-04T18:03:47.654Z,78.91
2023-02-04T18:06:29.303Z,79.23
2023-02-04T18:09:05.278Z,79.06
2023-02-04T18:11:41.330Z,77.62
2023-02-04T18:14:18.095Z,83.35
2023-02-04T18:16:52.294Z,86.47
2023-02-04T18:19:45.919Z,87.76
2023-02-04T18:22:19.076Z,86.83
2023-02-04T18:24:51.623Z,86.93
2023-02-04T18:27:25.866Z,84.50
2023-02-04T18:30:00.519Z,83.54
2023-02-04T18:32:39.983Z,83.19
2023-02-04T18:38:32.525Z,82.72
2023-02-04T18:41:21.857Z,81.12
2023-02-04T18:44:02.714Z,80.87
2023-02-04T18:46:58.368Z,81.67
2023-02-04T18:49:39.741Z,81.90
2023-02-04T18:52:16.515Z,81.81
2023-02-04T18:54:53.767Z,82.30
2023-02-04T18:57:47.301Z,82.42
2023-02-04T19:00:30.946Z,83.24
2023-02-04T19:03:28.391Z,83.25
2023-02-04T19:06:03.232Z,82.37
2023-02-04T19:08:45.801Z,82.36
2023-02-04T19:11:42.909Z,82.64
2023-02-04T19:14:40.490Z,83.69
2023-02-04T19:17:28.266Z,84.37
2023-02-04T19:20:19.110Z,84.69
2023-02-04T19:22:57.114Z,84.65
2023-02-04T19:25:37.388Z,83.83
2023-02-04T19:28:27.932Z,84.14
2023-02-04T19:31:08.675Z,84.31
2023-02-04T19:33:43.144Z,84.95
2023-02-04T19:36:34.268Z,85.21
2023-02-04T19:39:39.776Z,85.41
2023-02-04T19:42:46.968Z,85.99
2023-02-04T19:45:25.552Z,86.05
2023-02-04T19:47:58.395Z,87.27
2023-02-04T19:50:33.380Z,88.06
2023-02-04T19:53:14.341Z,87.73
2023-02-04T19:55:54.488Z,87.75
2023-02-04T19:58:40.257Z,88.93
2023-02-04T20:01:17.965Z,89.27
2023-02-04T20:03:51.292Z,88.56
2023-02-04T20:06:29.504Z,88.05
2023-02-04T20:09:30.487Z,88.05
2023-02-04T20:12:16.315Z,87.34
2023-02-04T20:14:52.245Z,87.84
2023-02-04T20:17:37.549Z,87.58
2023-02-04T20:20:26.763Z,87.53
2023-02-04T20:23:03.599Z,87.17
2023-02-04T20:25:47.849Z,87.72
2023-02-04T20:28:31.066Z,88.47
2023-02-04T20:31:04.646Z,89.47
2023-02-04T20:33:59.602Z,89.87
2023-02-04T20:36:41.408Z,89.86
2023-02-04T20:39:29.772Z,90.03
2023-02-04T20:42:36.372Z,89.09
2023-02-04T20:45:19.832Z,89.48
2023-02-04T20:47:55.358Z,89.98
2023-02-04T20:50:41.359Z,89.75
2023-02-04T20:53:39.850Z,90.20
2023-02-04T20:56:40.418Z,90.39
2023-02-04T20:59:31.988Z,90.80
2023-02-04T21:02:04.764Z,90.20
2023-02-04T21:04:41.868Z,90.26
2023-02-04T21:07:22.378Z,90.80
2023-02-04T21:09:57.268Z,90.89
2023-02-04T21:12:31.149Z,91.04
2023-02-04T21:15:03.726Z,90.42
2023-02-04T21:17:37.452Z,90.54
2023-02-04T21:20:30.981Z,90.59
2023-02-04T21:23:03.745Z,91.07
2023-02-04T21:25:36.219Z,90.49
2023-02-04T21:28:08.762Z,90.03
2023-02-04T21:30:41.277Z,90.17
2023-02-04T21:33:16.668Z,90.46
2023-02-04T21:35:49.885Z,90.59
2023-02-04T21:38:22.257Z,91.20
2023-02-04T21:40:54.652Z,91.74
2023-02-04T21:43:27.091Z,91.55
2023-02-04T21:46:00.620Z,91.44
2023-02-04T21:48:33.391Z,90.81
2023-02-04T21:51:05.984Z,91.01
2023-02-04T21:53:39.247Z,91.13
2023-02-04T21:56:11.710Z,90.98
2023-02-04T21:58:44.228Z,91.55
2023-02-04T22:01:16.825Z,92.26
2023-02-04T22:03:49.277Z,92.88
2023-02-04T22:06:21.652Z,92.59
2023-02-04T22:08:54.705Z,92.76
2023-02-04T22:11:28.588Z,93.22
2023-02-04T22:14:01.076Z,93.24
2023-02-04T22:16:34.269Z,93.44
2023-02-04T22:19:07.199Z,93.11
2023-02-04T22:21:40.297Z,93.50
2023-02-04T22:24:12.768Z,93.50
2023-02-04T22:26:45.236Z,93.68
2023-02-04T22:29:19.348Z,93.71
2023-02-04T22:31:52.244Z,94.28
2023-02-04T22:34:25.605Z,94.41
2023-02-04T22:36:58.411Z,94.47
2023-02-04T22:39:30.803Z,94.46
2023-02-04T22:42:03.279Z,94.63
2023-02-04T22:44:35.712Z,94.71
2023-02-04T22:47:08.234Z,94.55
2023-02-04T22:49:40.675Z,94.65
2023-02-04T22:52:14.431Z,95.49
2023-02-04T22:54:46.966Z,95.08
2023-02-04T22:57:19.593Z,95.18
2023-02-04T22:59:52.088Z,95.52
2023-02-04T23:02:24.875Z,96.06
2023-02-04T23:04:57.550Z,96.22
2023-02-04T23:07:29.923Z,95.81
2023-02-04T23:10:02.240Z,96.18
2023-02-04T23:12:35.083Z,96.09
2023-02-04T23:15:08.744Z,96.14
2023-02-04T23:17:41.685Z,96.79
2023-02-04T23:20:14.028Z,96.95
2023-02-04T23:22:47.697Z,97.10
2023-02-04T23:25:20.985Z,97.04
2023-02-04T23:27:53.437Z,97.19
2023-02-04T23:30:25.968Z,96.68
2023-02-04T23:32:59.108Z,97.26
2023-02-04T23:35:32.185Z,97.21
2023-02-04T23:38:20.081Z,96.87
2023-02-04T23:40:52.988Z,97.07
2023-02-04T23:43:25.499Z,97.26
2023-02-04T23:45:59.545Z,97.36
2023-02-04T23:48:32.582Z,97.50
2023-02-04T23:51:05.920Z,97.61
2023-02-04T23:53:38.786Z,97.09
2023-02-04T23:56:11.109Z,97.14
2023-02-04T23:58:44.006Z,96.79
